Latest Weather Observations for Coconut Island

IDQ60801

Issued at 3:32 pm EST Monday 22 December 2014 (issued every 30 minutes, with the page automatically refreshed every 10 minutes)

About weather observations | Map of weather stations | Latest weather observations for QLD | Other Formats
Station Details ID: 027054 Name: COCONUT ISLAND Lat: -10.05 Lon: 143.07 Height: 3.5 m
Data from the previous 72 hours. | See also: Recent months at Coconut Island
Date/Time
EST
Temp
°C
App
Temp
°C
Dew
Point
Rel
Hum
%
Delta-T
°C
Wind Press
QNH
hPa
Press
MSL
hPa
Rain
since 9 am
mm
Dir
 
Spd
km/h
Gust
km/h
Spd
kts
Gust
kts
22/03:30pm 33.3 - - - - ESE 7 17 4 9 1006.6 1006.5 0.0
22/03:00pm 33.8 - - - - SE 7 15 4 8 1006.8 1006.7 0.0
22/02:30pm 34.5 - - - - SE 7 17 4 9 1006.9 1006.8 0.0
22/02:00pm 33.4 - - - - ESE 9 19 5 10 1007.1 1007.0 0.0
22/01:30pm 33.7 - - - - ESE 9 17 5 9 1007.5 1007.4 0.0
22/01:00pm 33.9 - - - - SE 9 15 5 8 1007.7 1007.6 0.0
22/12:30pm 32.9 - - - - ESE 9 19 5 10 1008.0 1007.9 0.0
22/12:00pm 33.4 - - - - ESE 9 15 5 8 1008.3 1008.2 0.0
22/11:30am 33.7 - - - - ESE 9 20 5 11 1008.5 1008.4 0.0
22/11:00am 33.7 - - - - ESE 9 20 5 11 1008.8 1008.7 0.0
22/10:30am 33.2 - - - - ESE 11 20 6 11 1009.1 1009.0 0.0
22/10:00am 32.7 - - - - ESE 11 20 6 11 1009.0 1008.9 0.0
22/09:30am 32.4 - - - - ESE 9 17 5 9 1009.0 1008.9 0.0
22/09:00am 31.9 - - - - ESE 9 19 5 10 1008.7 1008.6 0.0
22/08:30am 30.6 - - - - ESE 11 19 6 10 1008.5 1008.4 0.0
22/08:00am 29.2 - - - - SE 6 15 3 8 1008.2 1008.1 0.0
22/07:30am 28.4 - - - - SE 6 13 3 7 1008.1 1008.0 0.0
22/07:00am 27.5 - - - - SE 6 11 3 6 1008.0 1007.9 0.0
22/06:30am 27.1 - - - - SE 6 11 3 6 1008.0 1007.9 0.0
22/06:00am 27.0 - - - - ESE 7 13 4 7 1007.7 1007.6 0.0
22/05:30am 27.3 - - - - ESE 9 17 5 9 1007.3 1007.2 0.0
22/05:00am 27.4 - - - - ESE 9 15 5 8 1007.2 1007.1 0.0
22/04:30am 27.6 - - - - E 9 17 5 9 1007.1 1007.0 0.0
22/04:00am 27.6 - - - - E 9 17 5 9 1007.1 1007.0 0.0
22/03:30am 27.8 - - - - E 13 20 7 11 1006.9 1006.8 0.0
22/03:00am 27.9 - - - - E 13 19 7 10 1007.3 1007.2 0.0
22/02:30am 28.0 - - - - E 15 24 8 13 1007.6 1007.5 0.0
22/02:00am 28.1 - - - - E 15 26 8 14 1007.7 1007.6 0.0
22/01:30am 28.2 - - - - ESE 13 24 7 13 1007.8 1007.7 0.0
22/01:00am 28.3 - - - - ESE 13 24 7 13 1008.1 1008.0 0.0
22/12:30am 28.4 - - - - ESE 13 22 7 12 1008.4 1008.3 0.0
22/12:00am 28.5 - - - - E 17 24 9 13 1009.0 1008.9 0.0
 
Date/Time
EST
Temp
°C
App
Temp
°C
Dew
Point
Rel
Hum
%
Delta-T
°C
Wind Press
QNH
hPa
Press
MSL
hPa
Rain
since 9 am
mm
Dir
 
Spd
km/h
Gust
km/h
Spd
kts
Gust
kts
21/11:30pm 28.6 - - - - ESE 13 26 7 14 1009.1 1009.0 0.0
21/11:00pm 28.4 - - - - ESE 13 24 7 13 1009.0 1008.9 0.0
21/10:30pm 28.4 - - - - ESE 11 26 6 14 1008.9 1008.8 0.0
21/10:00pm 28.6 - - - - ESE 15 22 8 12 1008.8 1008.7 0.0
21/09:30pm 28.7 - - - - ESE 13 24 7 13 1008.6 1008.5 0.0
21/09:00pm 28.7 - - - - ESE 13 22 7 12 1008.3 1008.2 0.0
21/08:30pm 28.7 - - - - ESE 13 22 7 12 1007.9 1007.8 0.0
21/08:00pm 28.7 - - - - ESE 9 19 5 10 1007.6 1007.5 0.0
21/07:30pm 28.6 - - - - ESE 9 17 5 9 1007.4 1007.3 0.0
21/07:00pm 28.9 - - - - SE 9 17 5 9 1007.2 1007.1 0.0
21/06:30pm 29.7 - - - - SE 6 9 3 5 1006.9 1006.8 0.0
21/06:00pm 30.6 - - - - SE 6 11 3 6 1006.6 1006.5 0.0
21/05:30pm 31.5 - - - - SE 6 19 3 10 1006.6 1006.5 0.0
21/05:00pm 32.0 - - - - SE 6 13 3 7 1006.5 1006.4 0.0
21/04:30pm 32.9 - - - - SSE 4 11 2 6 1006.5 1006.4 0.0
21/04:00pm 33.2 - - - - SE 6 15 3 8 1006.7 1006.6 0.0
21/03:30pm 33.2 - - - - SE 7 15 4 8 1006.9 1006.8 0.0
21/03:00pm 32.6 - - - - ESE 9 17 5 9 1007.3 1007.2 0.0
21/02:30pm 33.3 - - - - ESE 9 15 5 8 1007.9 1007.8 0.0
21/02:00pm 32.6 - - - - E 9 22 5 12 1008.3 1008.2 0.0
21/01:30pm 33.1 - - - - ESE 7 15 4 8 1008.7 1008.6 0.0
21/01:00pm 33.3 - - - - E 9 17 5 9 1008.9 1008.8 0.0
21/12:30pm 33.2 - - - - E 9 20 5 11 1009.2 1009.1 0.0
21/12:00pm 33.2 - - - - E 9 15 5 8 1009.5 1009.4 0.0
21/11:30am 33.1 - - - - E 9 17 5 9 1009.7 1009.6 0.0
21/11:00am 32.9 - - - - E 9 19 5 10 1010.0 1009.9 0.0
21/10:30am 32.5 - - - - E 11 20 6 11 1010.0 1009.9 0.0
21/10:00am 31.8 - - - - E 11 22 6 12 1010.0 1009.9 0.0
21/09:30am 31.4 - - - - E 15 22 8 12 1009.8 1009.7 0.0
21/09:00am 29.8 - - - - ENE 11 19 6 10 1010.0 1009.9 0.0
21/08:30am 30.5 - - - - E 9 19 5 10 1009.8 1009.7 0.0
21/08:00am 29.3 - - - - E 11 20 6 11 1009.4 1009.3 0.0
21/07:30am 28.9 - - - - E 9 17 5 9 1008.9 1008.8 0.0
21/07:00am 27.9 - - - - E 7 15 4 8 1008.6 1008.5 0.0
21/06:30am 27.1 - - - - ESE 7 13 4 7 1008.6 1008.5 0.0
21/06:00am 26.6 - - - - ESE 6 9 3 5 1008.3 1008.2 0.0
21/05:30am 26.9 - - - - ESE 6 13 3 7 1008.2 1008.1 0.0
21/05:00am 26.8 - - - - ESE 7 13 4 7 1007.8 1007.7 0.0
21/04:30am 26.8 - - - - ESE 7 11 4 6 1007.4 1007.3 0.0
21/04:00am 26.6 - - - - ESE 7 15 4 8 1007.4 1007.3 0.0
21/03:30am 26.6 - - - - ESE 7 11 4 6 1007.5 1007.4 0.0
21/03:00am 26.7 - - - - ESE 7 13 4 7 1007.4 1007.3 0.0
21/02:30am 26.7 - - - - ESE 6 13 3 7 1007.6 1007.5 0.0
21/02:00am 26.6 - - - - ESE 6 11 3 6 1007.8 1007.7 0.0
21/01:30am 26.7 - - - - ESE 6 11 3 6 1008.3 1008.2 0.0
21/01:00am 26.8 - - - - SE 2 9 1 5 1008.6 1008.5 0.0
21/12:30am 26.9 - - - - ESE 6 11 3 6 1009.0 1008.9 0.0
21/12:00am 27.0 - - - - SE 6 11 3 6 1009.4 1009.3 0.0
 
Date/Time
EST
Temp
°C
App
Temp
°C
Dew
Point
Rel
Hum
%
Delta-T
°C
Wind Press
QNH
hPa
Press
MSL
hPa
Rain
since 9 am
mm
Dir
 
Spd
km/h
Gust
km/h
Spd
kts
Gust
kts
20/11:30pm 27.2 - - - - ESE 6 13 3 7 1009.6 1009.5 0.0
20/11:00pm 27.5 - - - - ESE 7 13 4 7 1009.7 1009.6 0.0
20/10:30pm 27.5 - - - - E 9 15 5 8 1009.6 1009.5 0.0
20/10:00pm 27.4 - - - - ESE 7 17 4 9 1009.5 1009.4 0.0
20/09:30pm 27.5 - - - - ESE 7 15 4 8 1009.3 1009.2 0.0
20/09:00pm 27.5 - - - - ESE 7 13 4 7 1009.2 1009.1 0.0
20/08:30pm 27.7 - - - - ESE 7 17 4 9 1008.9 1008.8 0.0
20/08:00pm 27.8 - - - - SE 7 17 4 9 1008.7 1008.6 0.0
20/07:30pm 27.9 - - - - SE 7 17 4 9 1008.2 1008.1 0.0
20/07:00pm 27.7 - - - - SE 4 9 2 5 1007.5 1007.4 0.0
20/06:30pm 28.2 - - - - SE 2 6 1 3 1007.1 1007.0 0.0
20/06:00pm 29.0 - - - - SE 2 6 1 3 1006.7 1006.6 0.0
20/05:30pm 29.1 - - - - SE 4 7 2 4 1006.4 1006.3 0.0
20/05:00pm 30.1 - - - - SE 4 9 2 5 1006.0 1005.9 0.0
20/04:30pm 30.8 - - - - SE 4 9 2 5 1006.0 1005.9 0.0
20/04:00pm 31.6 - - - - SE 6 13 3 7 1006.1 1006.0 0.0
20/03:30pm 32.2 - - - - ESE 4 7 2 4 1006.5 1006.4 0.0
20/03:00pm 32.6 - - - - SE 4 9 2 5 1006.8 1006.7 0.0
20/02:30pm 32.9 - - - - SE 4 7 2 4 1007.3 1007.2 0.0
20/02:00pm 33.1 - - - - SE 6 13 3 7 1007.9 1007.8 0.0
20/01:30pm 33.0 - - - - SE 6 13 3 7 1008.2 1008.1 0.0
20/01:00pm 33.9 - - - - SE 4 9 2 5 1008.5 1008.4 0.0
20/12:30pm 34.0 - - - - SE 4 11 2 6 1008.8 1008.7 0.0
20/12:00pm 34.4 - - - - SSE 2 6 1 3 1009.2 1009.1 0.0
20/11:30am 34.0 - - - - CALM 0 6 0 3 1009.3 1009.2 0.0
20/11:00am 34.4 - - - - SE 2 4 1 2 1009.8 1009.7 0.0
20/10:30am 33.7 - - - - SE 2 6 1 3 1009.8 1009.7 0.0
20/10:00am 33.1 - - - - SE 2 6 1 3 1010.1 1010.0 0.0
20/09:30am 32.4 - - - - SE 2 6 1 3 1010.4 1010.3 0.0
20/09:00am 31.8 - - - - CALM 0 2 0 1 1010.5 1010.4 0.0
20/08:30am 30.7 - - - - CALM 0 4 0 2 1010.5 1010.4 0.0
20/08:00am 29.2 - - - - SE 2 6 1 3 1010.4 1010.3 0.0
20/07:30am 27.8 - - - - ESE 2 6 1 3 1010.1 1010.0 0.0
20/07:00am 26.0 - - - - CALM 0 0 0 0 1009.7 1009.6 0.0
20/06:30am 25.1 - - - - CALM 0 0 0 0 1009.5 1009.4 0.0
20/06:00am 24.8 - - - - CALM 0 0 0 0 1009.2 1009.1 0.0
20/05:30am 25.1 - - - - CALM 0 0 0 0 1008.6 1008.5 0.0
20/05:00am 24.8 - - - - E 2 4 1 2 1008.4 1008.3 0.0
20/04:30am 24.8 - - - - CALM 0 0 0 0 1008.2 1008.1 0.0
20/04:00am 25.0 - - - - CALM 0 0 0 0 1007.9 1007.8 0.0
20/03:30am 25.3 - - - - CALM 0 2 0 1 1007.9 1007.8 0.0
20/03:00am 25.6 - - - - CALM 0 4 0 2 1007.9 1007.8 0.0
20/02:30am 25.7 - - - - CALM 0 4 0 2 1008.5 1008.4 0.0
20/02:00am 26.1 - - - - CALM 0 2 0 1 1008.6 1008.5 0.0
20/01:30am 25.9 - - - - E 4 6 2 3 1009.0 1008.9 0.0
20/01:00am 26.2 - - - - E 4 6 2 3 1009.2 1009.1 0.0
20/12:30am 26.6 - - - - E 6 7 3 4 1009.7 1009.6 0.0
20/12:00am 26.8 - - - - E 6 9 3 5 1010.2 1010.1 0.0
 
Date/Time
EST
Temp
°C
App
Temp
°C
Dew
Point
Rel
Hum
%
Delta-T
°C
Wind Press
QNH
hPa
Press
MSL
hPa
Rain
since 9 am
mm
Dir
 
Spd
km/h
Gust
km/h
Spd
kts
Gust
kts
19/11:30pm 26.8 - - - - E 6 9 3 5 1010.6 1010.5 0.0
19/11:00pm 26.9 - - - - E 6 7 3 4 1010.6 1010.5 0.0
19/10:30pm 27.0 - - - - E 6 9 3 5 1010.4 1010.3 0.0
19/10:00pm 27.1 - - - - E 4 7 2 4 1010.4 1010.3 0.0
19/09:30pm 27.4 - - - - E 4 7 2 4 1010.1 1010.0 0.0
19/09:00pm 27.7 - - - - ESE 4 9 2 5 1009.7 1009.6 0.0
19/08:30pm 27.8 - - - - ESE 4 9 2 5 1009.4 1009.3 0.0
19/08:00pm 27.9 - - - - E 4 9 2 5 1009.1 1009.0 0.0
19/07:30pm 28.2 - - - - ESE 4 7 2 4 1008.7 1008.6 0.0
19/07:00pm 28.4 - - - - ESE 4 9 2 5 1008.6 1008.5 0.0
19/06:30pm 29.1 - - - - E 6 11 3 6 1008.3 1008.2 0.0
19/06:00pm 29.9 - - - - ENE 9 13 5 7 1008.1 1008.0 0.0
19/05:30pm 30.7 - - - - ESE 4 9 2 5 1007.9 1007.8 0.0
19/05:00pm 30.7 - - - - E 6 11 3 6 1007.8 1007.7 0.0
19/04:30pm 31.1 - - - - E 9 13 5 7 1007.8 1007.7 0.0
19/04:00pm 31.4 - - - - E 7 15 4 8 1008.0 1007.9 0.0

Other Formats:

Comma delimited format used in spreadsheet applications
http://www.bom.gov.au/fwo/IDQ60801/IDQ60801.94182.axf

JavaScript Object Notation format (JSON) in row-major order
http://www.bom.gov.au/fwo/IDQ60801/IDQ60801.94182.json